Time;durP1;ratioP1;P1;durP2;ratioP2;P2;SDS_P1;SDS_P2;PMS_P1;PMS_P2;Temp;Humidity;BMP_temperature;BMP_pressure;BME280_temperature;BME280_humidity;BME280_pressure;Samples;Min_cycle;Max_cycle;Signal;HPM_P1;HPM_P2
2023/01/07 00:00:15;;;;;;;38.15;28.58;;;;;;;;;;4991939;28;20077;-74
2023/01/07 00:02:41;;;;;;;37.83;26.98;;;;;;;;;;4991273;28;20100;-74
2023/01/07 00:05:08;;;;;;;44.55;28.10;;;;;;;;;;4991103;28;20030;-74
2023/01/07 00:07:34;;;;;;;40.90;27.35;;;;;;;;;;4991344;28;20076;-74
2023/01/07 00:10:00;;;;;;;38.65;26.08;;;;;;;;;;4990938;28;20031;-73
2023/01/07 00:12:26;;;;;;;39.45;27.23;;;;;;;;;;4992401;28;20030;-74
2023/01/07 00:14:52;;;;;;;38.95;26.80;;;;;;;;;;4989963;28;20042;-74
2023/01/07 00:17:18;;;;;;;40.28;26.65;;;;;;;;;;4988546;28;20114;-73
2023/01/07 00:19:44;;;;;;;42.60;28.17;;;;;;;;;;4989957;28;20065;-74
2023/01/07 00:22:11;;;;;;;36.10;26.08;;;;;;;;;;4988434;28;20524;-75
2023/01/07 00:24:37;;;;;;;38.63;26.48;;;;;;;;;;4990447;28;20042;-73
2023/01/07 00:27:03;;;;;;;41.47;27.45;;;;;;;;;;4991499;28;20376;-75
2023/01/07 00:29:29;;;;;;;38.58;26.50;;;;;;;;;;4986788;28;20034;-76
2023/01/07 00:31:56;;;;;;;39.15;25.83;;;;;;;;;;4971472;28;20045;-74
2023/01/07 00:34:22;;;;;;;37.97;26.48;;;;;;;;;;4968763;28;20209;-74
2023/01/07 00:36:48;;;;;;;39.80;26.42;;;;;;;;;;4985810;28;20038;-74
2023/01/07 00:39:16;;;;;;;35.28;24.70;;;;;;;;;;4984296;28;20085;-74
2023/01/07 00:42:53;;;;;;;35.50;24.33;;;;;;;;;;4984445;28;20117;-75
2023/01/07 00:44:31;;;;;;;33.03;23.25;;;;;;;;;;4987986;28;20046;-74
2023/01/07 00:46:58;;;;;;;32.40;22.83;;;;;;;;;;4987125;28;20049;-75
2023/01/07 00:49:24;;;;;;;31.75;23.02;;;;;;;;;;4985451;28;20030;-74
2023/01/07 00:51:51;;;;;;;31.52;20.95;;;;;;;;;;4984687;28;20077;-75
2023/01/07 00:54:17;;;;;;;28.92;21.02;;;;;;;;;;4992878;28;20038;-74
2023/01/07 00:56:43;;;;;;;28.35;20.23;;;;;;;;;;4983034;28;20419;-74
2023/01/07 00:59:09;;;;;;;30.58;19.75;;;;;;;;;;4983074;28;20058;-74
2023/01/07 01:01:36;;;;;;;29.33;20.38;;;;;;;;;;4983718;28;20030;-74
2023/01/07 01:04:05;;;;;;;29.48;19.05;;;;;;;;;;4984086;28;21228;-74
2023/01/07 01:06:31;;;;;;;29.73;18.45;;;;;;;;;;4985242;28;20030;-75
2023/01/07 01:08:57;;;;;;;26.35;18.00;;;;;;;;;;4968407;28;20076;-74
2023/01/07 01:11:23;;;;;;;23.10;17.63;;;;;;;;;;4985942;28;20026;-74
2023/01/07 01:13:49;;;;;;;27.90;19.02;;;;;;;;;;4984562;28;20092;-74
2023/01/07 01:16:17;;;;;;;24.33;17.48;;;;;;;;;;4983813;28;20037;-74
2023/01/07 01:18:44;;;;;;;24.27;17.40;;;;;;;;;;4985854;28;20100;-74
2023/01/07 01:21:11;;;;;;;23.20;16.58;;;;;;;;;;4968768;28;20073;-74
2023/01/07 01:23:38;;;;;;;25.35;16.85;;;;;;;;;;4984705;28;20049;-75
2023/01/07 01:26:12;;;;;;;24.83;16.55;;;;;;;;;;4983010;28;20037;-74
2023/01/07 01:28:38;;;;;;;25.23;16.98;;;;;;;;;;4983702;28;20130;-75
2023/01/07 01:31:06;;;;;;;23.48;16.40;;;;;;;;;;4983417;28;20038;-75
2023/01/07 01:33:42;;;;;;;23.92;16.98;;;;;;;;;;4984041;28;20038;-74
2023/01/07 01:36:10;;;;;;;20.70;15.80;;;;;;;;;;4969725;28;20039;-74
2023/01/07 01:38:37;;;;;;;22.45;15.60;;;;;;;;;;4983794;28;20022;-75
2023/01/07 01:41:03;;;;;;;21.13;16.45;;;;;;;;;;4982728;28;20105;-74
2023/01/07 01:43:40;;;;;;;22.98;15.75;;;;;;;;;;4970286;28;20088;-75
2023/01/07 01:46:16;;;;;;;23.73;16.58;;;;;;;;;;4987539;28;20401;-75
2023/01/07 01:48:54;;;;;;;17.92;15.43;;;;;;;;;;4968606;28;20468;-72
2023/01/07 01:51:21;;;;;;;20.85;15.88;;;;;;;;;;4971818;28;20018;-74
2023/01/07 01:53:49;;;;;;;26.38;16.10;;;;;;;;;;4987345;28;20129;-75
2023/01/07 01:56:18;;;;;;;22.63;15.82;;;;;;;;;;4994787;28;20547;-74
2023/01/07 01:58:55;;;;;;;24.45;15.93;;;;;;;;;;4987019;28;20069;-75
2023/01/07 02:01:21;;;;;;;22.48;16.00;;;;;;;;;;4993141;28;20110;-74
2023/01/07 02:03:48;;;;;;;23.10;16.75;;;;;;;;;;4968999;28;20031;-74
2023/01/07 02:06:22;;;;;;;22.80;16.88;;;;;;;;;;4993703;28;20030;-75
2023/01/07 02:08:48;;;;;;;;;;;;;;;;;;4998729;28;20057;-72
2023/01/07 02:11:17;;;;;;;25.20;16.83;;;;;;;;;;4990164;28;19910;-74
2023/01/07 02:13:54;;;;;;;25.77;17.33;;;;;;;;;;4981571;28;20054;-74
2023/01/07 02:16:21;;;;;;;22.13;16.10;;;;;;;;;;4975023;28;20488;-75
2023/01/07 02:19:05;;;;;;;22.73;17.23;;;;;;;;;;4983417;28;20034;-75
2023/01/07 02:21:38;;;;;;;24.02;16.00;;;;;;;;;;4982625;28;20239;-74
2023/01/07 02:24:04;;;;;;;23.65;16.55;;;;;;;;;;4982399;28;20027;-73
2023/01/07 02:26:50;;;;;;;22.73;16.92;;;;;;;;;;4982257;28;20085;-75
2023/01/07 02:29:19;;;;;;;23.15;16.30;;;;;;;;;;4982460;28;20231;-73
2023/01/07 02:32:02;;;;;;;26.83;16.95;;;;;;;;;;4984976;28;20039;-75
2023/01/07 02:34:47;;;;;;;28.23;17.90;;;;;;;;;;4983917;28;20107;-73
2023/01/07 02:37:19;;;;;;;27.77;16.77;;;;;;;;;;4984948;28;20855;-73
2023/01/07 02:40:00;;;;;;;30.40;17.00;;;;;;;;;;4983297;28;20030;-75
2023/01/07 02:42:32;;;;;;;26.85;18.13;;;;;;;;;;4983758;28;20037;-75
2023/01/07 02:45:04;;;;;;;27.17;17.85;;;;;;;;;;4982909;28;20042;-75
2023/01/07 02:47:36;;;;;;;25.58;17.15;;;;;;;;;;4984249;28;20411;-74
2023/01/07 02:50:02;;;;;;;28.48;18.02;;;;;;;;;;4988427;28;20034;-74
2023/01/07 02:52:31;;;;;;;27.15;18.70;;;;;;;;;;4982896;28;20121;-74
2023/01/07 02:55:04;;;;;;;28.38;16.85;;;;;;;;;;4983012;28;20050;-74
2023/01/07 02:57:30;;;;;;;26.23;17.58;;;;;;;;;;4982342;28;20122;-74
2023/01/07 03:00:02;;;;;;;27.77;16.95;;;;;;;;;;4963832;28;20073;-74
2023/01/07 03:02:28;;;;;;;28.13;17.52;;;;;;;;;;4983180;28;20101;-74
2023/01/07 03:05:14;;;;;;;27.30;17.67;;;;;;;;;;4981865;28;20447;-74
2023/01/07 03:07:58;;;;;;;27.13;16.98;;;;;;;;;;4984918;28;20041;-74
2023/01/07 03:10:40;;;;;;;23.30;15.65;;;;;;;;;;4984566;28;20037;-75
2023/01/07 03:13:16;;;;;;;27.73;16.20;;;;;;;;;;4985195;28;20050;-75
2023/01/07 03:15:45;;;;;;;24.90;15.50;;;;;;;;;;4984062;28;20582;-74
2023/01/07 03:18:17;;;;;;;24.20;15.77;;;;;;;;;;4966361;28;20080;-74
2023/01/07 03:20:46;;;;;;;26.35;15.65;;;;;;;;;;4984774;28;20050;-74
2023/01/07 03:23:13;;;;;;;24.17;15.57;;;;;;;;;;4986223;28;20027;-75
2023/01/07 03:25:42;;;;;;;25.25;14.65;;;;;;;;;;4988899;28;20480;-74
2023/01/07 03:28:09;;;;;;;22.10;13.48;;;;;;;;;;4986184;28;20116;-73
2023/01/07 03:30:36;;;;;;;29.65;14.35;;;;;;;;;;4983803;28;20026;-76
2023/01/07 03:33:14;;;;;;;21.77;14.65;;;;;;;;;;4952032;28;20057;-73
2023/01/07 03:35:45;;;;;;;25.85;14.38;;;;;;;;;;4983930;28;20327;-75
2023/01/07 03:38:12;;;;;;;25.10;14.35;;;;;;;;;;4985246;28;20030;-75
2023/01/07 03:40:38;;;;;;;26.55;14.27;;;;;;;;;;4981733;28;20105;-74
2023/01/07 03:43:11;;;;;;;25.55;13.45;;;;;;;;;;4984595;28;20035;-74
2023/01/07 03:45:37;;;;;;;24.70;13.35;;;;;;;;;;4984626;28;20022;-75
2023/01/07 03:48:04;;;;;;;24.00;13.27;;;;;;;;;;4953445;28;20432;-74
2023/01/07 03:50:35;;;;;;;;;;;;;;;;;;4987996;28;20030;-72
2023/01/07 03:53:01;;;;;;;31.60;14.57;;;;;;;;;;4986050;28;20001;-75
2023/01/07 03:55:29;;;;;;;30.60;14.27;;;;;;;;;;4969859;28;20092;-74
2023/01/07 03:57:56;;;;;;;22.02;13.38;;;;;;;;;;4984281;28;20053;-74
2023/01/07 04:00:24;;;;;;;22.80;13.77;;;;;;;;;;4998593;28;20026;-74
2023/01/07 04:02:57;;;;;;;27.10;13.73;;;;;;;;;;4984055;28;20019;-74
2023/01/07 04:05:30;;;;;;;29.27;13.98;;;;;;;;;;4988051;28;20164;-74
2023/01/07 04:07:57;;;;;;;25.90;13.68;;;;;;;;;;4985793;28;20030;-74
2023/01/07 04:10:25;;;;;;;31.38;14.98;;;;;;;;;;4994507;28;20804;-74
2023/01/07 04:12:51;;;;;;;27.90;13.70;;;;;;;;;;4984677;28;20522;-74
2023/01/07 04:15:18;;;;;;;20.52;13.00;;;;;;;;;;4984566;28;20041;-74
2023/01/07 04:17:44;;;;;;;21.02;12.90;;;;;;;;;;4985492;28;20392;-74
2023/01/07 04:20:11;;;;;;;23.30;12.82;;;;;;;;;;4985357;28;20022;-74
2023/01/07 04:22:38;;;;;;;26.85;13.68;;;;;;;;;;4985491;28;20042;-73
2023/01/07 04:25:04;;;;;;;19.88;13.25;;;;;;;;;;4983243;28;20023;-74
2023/01/07 04:27:32;;;;;;;19.75;13.25;;;;;;;;;;4985714;28;20125;-74
2023/01/07 04:29:58;;;;;;;27.45;13.75;;;;;;;;;;4985282;28;20092;-73
2023/01/07 04:32:25;;;;;;;27.10;14.13;;;;;;;;;;4986291;28;20046;-73
2023/01/07 04:34:52;;;;;;;22.17;12.95;;;;;;;;;;4987361;28;20491;-73
2023/01/07 04:37:18;;;;;;;25.42;13.50;;;;;;;;;;4988948;28;20491;-72
2023/01/07 04:39:44;;;;;;;23.13;13.40;;;;;;;;;;4971679;28;20041;-73
2023/01/07 04:42:11;;;;;;;20.25;13.63;;;;;;;;;;4954858;28;20028;-73
2023/01/07 04:44:39;;;;;;;23.48;12.73;;;;;;;;;;4969475;28;20030;-73
2023/01/07 04:47:05;;;;;;;22.95;13.68;;;;;;;;;;4970996;28;20065;-73
2023/01/07 04:49:31;;;;;;;24.25;13.93;;;;;;;;;;4984441;28;20053;-73
2023/01/07 04:51:58;;;;;;;24.65;13.23;;;;;;;;;;4970556;28;20027;-72
2023/01/07 04:54:24;;;;;;;23.35;12.77;;;;;;;;;;4983760;28;20074;-73
2023/01/07 04:56:51;;;;;;;25.15;12.45;;;;;;;;;;4983856;28;20045;-74
2023/01/07 04:59:18;;;;;;;23.85;13.70;;;;;;;;;;4986570;28;20022;-73
2023/01/07 05:01:44;;;;;;;25.52;13.68;;;;;;;;;;4968042;28;20045;-73
2023/01/07 05:04:10;;;;;;;21.90;12.88;;;;;;;;;;4983238;28;20038;-74
2023/01/07 05:06:36;;;;;;;24.23;13.02;;;;;;;;;;4966088;28;20039;-74
2023/01/07 05:09:02;;;;;;;24.08;12.90;;;;;;;;;;4984213;28;20530;-74
2023/01/07 05:11:30;;;;;;;23.50;12.55;;;;;;;;;;4983884;28;20049;-74
2023/01/07 05:13:59;;;;;;;20.92;13.30;;;;;;;;;;4984674;28;20053;-74
2023/01/07 05:16:27;;;;;;;23.35;12.15;;;;;;;;;;4984392;28;20033;-74
2023/01/07 05:18:56;;;;;;;18.20;11.68;;;;;;;;;;4990622;28;20081;-73
2023/01/07 05:21:24;;;;;;;23.15;12.15;;;;;;;;;;4985711;28;20061;-74
2023/01/07 05:23:50;;;;;;;24.63;12.80;;;;;;;;;;4985029;28;20046;-73
2023/01/07 05:26:17;;;;;;;17.42;11.10;;;;;;;;;;4984794;28;20096;-74
2023/01/07 05:28:43;;;;;;;18.00;11.68;;;;;;;;;;4984253;28;20030;-72
2023/01/07 05:31:09;;;;;;;16.60;11.57;;;;;;;;;;4983372;28;20019;-73
2023/01/07 05:33:36;;;;;;;16.52;11.13;;;;;;;;;;4981648;28;20026;-73
2023/01/07 05:36:02;;;;;;;21.40;11.60;;;;;;;;;;4982147;28;20520;-74
2023/01/07 05:38:28;;;;;;;16.15;10.20;;;;;;;;;;4985506;28;20113;-73
2023/01/07 05:40:56;;;;;;;14.48;10.15;;;;;;;;;;4969014;28;20026;-73
2023/01/07 05:43:25;;;;;;;17.45;10.23;;;;;;;;;;4986546;28;20109;-73
2023/01/07 05:45:51;;;;;;;18.15;10.18;;;;;;;;;;4985017;28;20043;-73
2023/01/07 05:48:17;;;;;;;14.75;9.68;;;;;;;;;;4989869;28;20042;-74
2023/01/07 05:50:43;;;;;;;17.48;9.88;;;;;;;;;;4986840;28;20046;-72
2023/01/07 05:53:09;;;;;;;17.63;9.48;;;;;;;;;;4988356;28;20033;-73
2023/01/07 05:55:37;;;;;;;15.45;10.13;;;;;;;;;;4985263;28;20049;-75
2023/01/07 05:58:03;;;;;;;18.27;10.52;;;;;;;;;;4986400;28;20043;-73
2023/01/07 06:00:29;;;;;;;20.17;10.23;;;;;;;;;;4985991;28;20172;-74
2023/01/07 06:02:56;;;;;;;16.13;9.15;;;;;;;;;;4987408;28;20034;-73
2023/01/07 06:05:22;;;;;;;18.00;9.45;;;;;;;;;;4987139;28;20371;-74
2023/01/07 06:07:48;;;;;;;12.05;8.95;;;;;;;;;;4985220;28;20049;-73
2023/01/07 06:10:14;;;;;;;15.65;9.00;;;;;;;;;;4976537;28;20080;-73
2023/01/07 06:12:41;;;;;;;14.45;9.68;;;;;;;;;;4981973;28;20118;-73
2023/01/07 06:15:07;;;;;;;13.80;8.07;;;;;;;;;;4983095;28;20073;-74
2023/01/07 06:17:33;;;;;;;13.07;8.57;;;;;;;;;;4950071;28;20792;-73
2023/01/07 06:19:59;;;;;;;12.38;8.40;;;;;;;;;;4984068;28;20062;-74
2023/01/07 06:22:26;;;;;;;16.15;9.32;;;;;;;;;;4983406;28;20032;-73
2023/01/07 06:24:52;;;;;;;20.77;8.50;;;;;;;;;;4981687;28;20057;-73
2023/01/07 06:27:18;;;;;;;14.43;8.32;;;;;;;;;;4982587;28;20062;-73
2023/01/07 06:29:44;;;;;;;16.35;8.65;;;;;;;;;;4984068;28;20069;-74
2023/01/07 06:32:10;;;;;;;11.50;8.18;;;;;;;;;;4984638;28;20105;-73
2023/01/07 06:34:36;;;;;;;14.75;8.00;;;;;;;;;;4980821;28;20056;-74
2023/01/07 06:37:02;;;;;;;12.40;8.30;;;;;;;;;;4983168;28;20041;-74
2023/01/07 06:39:29;;;;;;;13.65;8.00;;;;;;;;;;4983008;28;20463;-74
2023/01/07 06:41:55;;;;;;;11.93;7.55;;;;;;;;;;4983114;28;20031;-74
2023/01/07 06:44:21;;;;;;;13.65;7.50;;;;;;;;;;4981576;28;20053;-74
2023/01/07 06:46:47;;;;;;;11.18;6.78;;;;;;;;;;4985533;28;20113;-75
2023/01/07 06:49:13;;;;;;;17.05;7.80;;;;;;;;;;4981450;28;20080;-75
2023/01/07 06:51:39;;;;;;;15.73;6.85;;;;;;;;;;4962279;28;20026;-73
2023/01/07 06:54:05;;;;;;;15.15;7.28;;;;;;;;;;4979596;28;20054;-74
2023/01/07 06:56:35;;;;;;;12.38;7.20;;;;;;;;;;4976025;28;20046;-74
2023/01/07 06:59:01;;;;;;;12.65;7.35;;;;;;;;;;4982757;28;20054;-75
2023/01/07 07:01:27;;;;;;;13.68;7.25;;;;;;;;;;4950589;28;20125;-74
2023/01/07 07:03:53;;;;;;;9.60;6.18;;;;;;;;;;4980482;28;20093;-75
2023/01/07 07:06:20;;;;;;;13.13;6.20;;;;;;;;;;4985791;28;20035;-75
2023/01/07 07:08:46;;;;;;;10.57;5.40;;;;;;;;;;4979591;28;20038;-74
2023/01/07 07:11:12;;;;;;;14.30;6.05;;;;;;;;;;4980296;28;20038;-76
2023/01/07 07:13:38;;;;;;;10.35;5.60;;;;;;;;;;4978522;28;20034;-74
2023/01/07 07:16:04;;;;;;;8.82;5.80;;;;;;;;;;4980708;28;20075;-74
2023/01/07 07:18:30;;;;;;;8.63;5.15;;;;;;;;;;4985025;28;20049;-74
2023/01/07 07:20:57;;;;;;;10.00;5.32;;;;;;;;;;4997821;28;20033;-74
2023/01/07 07:23:24;;;;;;;15.65;5.22;;;;;;;;;;4983378;28;20048;-74
2023/01/07 07:25:50;;;;;;;9.15;5.13;;;;;;;;;;4984837;28;20043;-75
2023/01/07 07:28:16;;;;;;;10.20;5.43;;;;;;;;;;4985116;28;20053;-74
2023/01/07 07:30:42;;;;;;;10.02;4.90;;;;;;;;;;4982000;28;20034;-74
2023/01/07 07:33:11;;;;;;;9.75;4.47;;;;;;;;;;4985043;28;20038;-73
2023/01/07 07:35:37;;;;;;;8.43;3.97;;;;;;;;;;4984285;28;20105;-74
2023/01/07 07:38:04;;;;;;;9.02;4.03;;;;;;;;;;4985215;28;20030;-75
2023/01/07 07:40:30;;;;;;;7.78;4.32;;;;;;;;;;4987250;28;20048;-73
2023/01/07 07:42:58;;;;;;;8.65;3.80;;;;;;;;;;4987510;28;20189;-73
2023/01/07 07:45:25;;;;;;;6.88;4.07;;;;;;;;;;4989558;28;20034;-74
2023/01/07 07:47:51;;;;;;;6.35;3.22;;;;;;;;;;4989136;28;20096;-73
2023/01/07 07:50:17;;;;;;;6.43;3.13;;;;;;;;;;4989293;28;20483;-72
2023/01/07 07:52:44;;;;;;;6.28;3.20;;;;;;;;;;4990004;28;20050;-74
2023/01/07 07:55:11;;;;;;;11.93;3.35;;;;;;;;;;4988369;28;20030;-73
2023/01/07 07:57:37;;;;;;;6.55;3.05;;;;;;;;;;4989802;28;20038;-73
2023/01/07 08:00:04;;;;;;;7.28;2.80;;;;;;;;;;4989875;28;20034;-74
2023/01/07 08:02:38;;;;;;;9.20;3.92;;;;;;;;;;4992074;28;20026;-73
2023/01/07 08:05:05;;;;;;;6.78;3.58;;;;;;;;;;4986403;28;20065;-73
2023/01/07 08:07:31;;;;;;;8.32;4.03;;;;;;;;;;4986774;28;20049;-73
2023/01/07 08:09:57;;;;;;;6.28;2.90;;;;;;;;;;4990489;28;20488;-73
2023/01/07 08:12:23;;;;;;;4.07;2.40;;;;;;;;;;4990105;28;20050;-74
2023/01/07 08:14:49;;;;;;;5.72;2.70;;;;;;;;;;4990352;28;20034;-73
2023/01/07 08:17:15;;;;;;;5.55;2.92;;;;;;;;;;4994240;28;20145;-73
2023/01/07 08:19:42;;;;;;;3.92;2.70;;;;;;;;;;5006440;28;20045;-73
2023/01/07 08:22:08;;;;;;;8.00;2.70;;;;;;;;;;4977230;28;20038;-73
2023/01/07 08:24:34;;;;;;;6.18;2.90;;;;;;;;;;4975695;28;20061;-73
2023/01/07 08:27:04;;;;;;;5.60;2.60;;;;;;;;;;4990529;28;20457;-73
2023/01/07 08:29:30;;;;;;;6.00;2.90;;;;;;;;;;4992510;28;20065;-73
2023/01/07 08:31:56;;;;;;;3.50;2.28;;;;;;;;;;4995087;28;20042;-74
2023/01/07 08:34:23;;;;;;;5.22;2.60;;;;;;;;;;4994669;28;20038;-73
2023/01/07 08:36:49;;;;;;;3.65;2.42;;;;;;;;;;5007894;28;20105;-73
2023/01/07 08:39:16;;;;;;;8.20;2.58;;;;;;;;;;5004585;28;20065;-73
2023/01/07 08:41:42;;;;;;;5.20;2.80;;;;;;;;;;5011649;28;20030;-73
2023/01/07 08:44:09;;;;;;;5.68;2.83;;;;;;;;;;5010383;28;20050;-73
2023/01/07 08:46:35;;;;;;;4.00;2.50;;;;;;;;;;5001728;28;20041;-74
2023/01/07 08:49:02;;;;;;;4.80;2.40;;;;;;;;;;5010405;28;20049;-73
2023/01/07 08:51:28;;;;;;;4.53;2.60;;;;;;;;;;4994343;28;20038;-73
2023/01/07 08:53:54;;;;;;;2.35;2.08;;;;;;;;;;4990984;28;20103;-73
2023/01/07 08:56:21;;;;;;;6.03;2.42;;;;;;;;;;4990757;28;20571;-74
2023/01/07 08:58:47;;;;;;;4.35;1.85;;;;;;;;;;4992382;28;20026;-73
2023/01/07 09:01:13;;;;;;;5.07;2.20;;;;;;;;;;4990859;28;20117;-74
2023/01/07 09:03:40;;;;;;;5.65;2.60;;;;;;;;;;4995044;28;20392;-73
2023/01/07 09:06:06;;;;;;;4.07;2.25;;;;;;;;;;4993010;28;20506;-73
2023/01/07 09:08:32;;;;;;;3.80;2.03;;;;;;;;;;4993420;28;20222;-73
2023/01/07 09:10:58;;;;;;;3.28;2.05;;;;;;;;;;5007347;28;20336;-73
2023/01/07 09:13:24;;;;;;;4.00;2.20;;;;;;;;;;5003078;28;20069;-73
2023/01/07 09:15:51;;;;;;;3.85;1.70;;;;;;;;;;4989474;28;20479;-76
2023/01/07 09:18:19;;;;;;;7.00;1.90;;;;;;;;;;4992632;28;20368;-73
2023/01/07 09:20:45;;;;;;;5.10;1.90;;;;;;;;;;4992109;28;20042;-73
2023/01/07 09:23:11;;;;;;;2.78;1.98;;;;;;;;;;5007925;28;20117;-72
2023/01/07 09:25:37;;;;;;;3.70;1.88;;;;;;;;;;5006063;28;20026;-75
2023/01/07 09:28:03;;;;;;;3.90;2.00;;;;;;;;;;4996654;28;20064;-72
2023/01/07 09:30:29;;;;;;;4.47;1.95;;;;;;;;;;4979394;28;20046;-72
2023/01/07 09:32:55;;;;;;;3.75;2.00;;;;;;;;;;5003838;28;20040;-75
2023/01/07 09:35:22;;;;;;;7.90;1.80;;;;;;;;;;4996868;28;20124;-75
2023/01/07 09:37:48;;;;;;;2.75;1.98;;;;;;;;;;5009084;28;20061;-75
2023/01/07 09:40:21;;;;;;;3.78;1.75;;;;;;;;;;5008810;28;20026;-74
2023/01/07 09:42:47;;;;;;;2.95;1.80;;;;;;;;;;4991123;28;20110;-74
2023/01/07 09:45:22;;;;;;;3.33;1.75;;;;;;;;;;4993490;28;20036;-74
2023/01/07 09:47:51;;;;;;;4.63;1.80;;;;;;;;;;4990339;28;20038;-76
2023/01/07 09:50:26;;;;;;;4.28;1.80;;;;;;;;;;4988001;28;20026;-74
2023/01/07 09:52:56;;;;;;;3.72;1.70;;;;;;;;;;4979284;28;20117;-74
2023/01/07 09:55:31;;;;;;;3.75;1.65;;;;;;;;;;4990109;28;20038;-75
2023/01/07 09:57:57;;;;;;;2.30;1.70;;;;;;;;;;4988886;28;20542;-76
2023/01/07 10:00:24;;;;;;;2.67;1.70;;;;;;;;;;4985035;28;20023;-74
2023/01/07 10:02:50;;;;;;;3.50;1.80;;;;;;;;;;4984016;28;20116;-74
2023/01/07 10:05:17;;;;;;;3.47;1.92;;;;;;;;;;5000893;28;20104;-74
2023/01/07 10:07:51;;;;;;;3.30;1.40;;;;;;;;;;4989317;28;20035;-73
2023/01/07 10:10:32;;;;;;;3.05;1.55;;;;;;;;;;4990138;28;20029;-76
2023/01/07 10:13:17;;;;;;;2.10;1.45;;;;;;;;;;4996837;28;20038;-74
2023/01/07 10:16:07;;;;;;;3.53;1.70;;;;;;;;;;4982133;28;20034;-74
2023/01/07 10:18:45;;;;;;;2.25;1.48;;;;;;;;;;4993580;28;20042;-72
2023/01/07 10:21:15;;;;;;;4.18;1.90;;;;;;;;;;5003970;28;20105;-74
2023/01/07 10:23:43;;;;;;;3.20;1.80;;;;;;;;;;5001730;28;20446;-73
2023/01/07 10:26:16;;;;;;;4.20;1.70;;;;;;;;;;5002390;28;20030;-78
2023/01/07 10:28:42;;;;;;;2.95;1.65;;;;;;;;;;4990022;28;20031;-76
2023/01/07 10:31:15;;;;;;;3.85;1.50;;;;;;;;;;4992109;28;20049;-76
2023/01/07 10:33:41;;;;;;;2.58;1.65;;;;;;;;;;4990928;28;20205;-74
2023/01/07 10:36:10;;;;;;;2.90;1.50;;;;;;;;;;4989124;28;20061;-75
2023/01/07 10:38:40;;;;;;;2.83;1.73;;;;;;;;;;4990072;28;20025;-76
2023/01/07 10:41:09;;;;;;;4.47;1.73;;;;;;;;;;4984395;28;20106;-77
2023/01/07 10:43:41;;;;;;;5.80;1.90;;;;;;;;;;4973274;28;20289;-74
2023/01/07 10:46:29;;;;;;;4.00;1.85;;;;;;;;;;4995797;28;20041;-72
2023/01/07 10:49:01;;;;;;;3.45;2.58;;;;;;;;;;5011464;28;20399;-74
2023/01/07 10:51:46;;;;;;;5.93;1.85;;;;;;;;;;4995752;28;20484;-75
2023/01/07 10:54:24;;;;;;;4.78;1.65;;;;;;;;;;5008325;28;20030;-74
2023/01/07 10:56:56;;;;;;;2.97;2.05;;;;;;;;;;4995199;28;20047;-76
2023/01/07 10:59:23;;;;;;;4.47;1.80;;;;;;;;;;4998094;28;20049;-76
2023/01/07 11:01:56;;;;;;;3.03;1.95;;;;;;;;;;4987093;28;20026;-75
2023/01/07 11:04:23;;;;;;;2.95;1.70;;;;;;;;;;5006089;28;20061;-77
2023/01/07 11:06:58;;;;;;;3.53;1.92;;;;;;;;;;4996146;28;20121;-75
2023/01/07 11:09:28;;;;;;;4.60;1.80;;;;;;;;;;4996430;28;20054;-76
2023/01/07 11:11:55;;;;;;;4.25;1.88;;;;;;;;;;4993780;28;20105;-75
2023/01/07 11:14:22;;;;;;;4.15;1.80;;;;;;;;;;4995477;28;20098;-74
2023/01/07 11:16:51;;;;;;;3.50;1.90;;;;;;;;;;4994570;28;20046;-76
2023/01/07 11:19:17;;;;;;;1.98;1.65;;;;;;;;;;4981071;28;20031;-74
2023/01/07 11:21:44;;;;;;;5.60;1.92;;;;;;;;;;5002784;28;20066;-72
2023/01/07 11:24:31;;;;;;;2.83;1.60;;;;;;;;;;4991586;28;20026;-72
2023/01/07 11:27:16;;;;;;;2.00;1.70;;;;;;;;;;4974327;28;20050;-75
2023/01/07 11:29:43;;;;;;;3.35;1.58;;;;;;;;;;4994564;28;20032;-73
2023/01/07 11:32:26;;;;;;;4.90;1.73;;;;;;;;;;4997273;28;20540;-73
2023/01/07 11:35:00;;;;;;;2.60;1.65;;;;;;;;;;5022766;28;20038;-76
2023/01/07 11:37:42;;;;;;;2.53;1.60;;;;;;;;;;5009713;28;20022;-74
2023/01/07 11:40:12;;;;;;;3.17;1.70;;;;;;;;;;5003075;28;20049;-76
2023/01/07 11:42:58;;;;;;;2.38;1.48;;;;;;;;;;4993440;28;20037;-74
2023/01/07 11:45:26;;;;;;;2.53;1.70;;;;;;;;;;4992402;28;20046;-73
2023/01/07 11:48:07;;;;;;;3.15;1.45;;;;;;;;;;4993128;28;20507;-73
2023/01/07 11:50:36;;;;;;;3.70;2.10;;;;;;;;;;4999315;28;20034;-75
2023/01/07 11:53:15;;;;;;;4.07;1.65;;;;;;;;;;4999977;28;20038;-74
2023/01/07 11:55:58;;;;;;;3.78;1.55;;;;;;;;;;4995145;28;20057;-74
2023/01/07 11:58:26;;;;;;;3.13;1.75;;;;;;;;;;4986850;28;20041;-74
2023/01/07 12:01:19;;;;;;;2.13;1.30;;;;;;;;;;4991416;28;20030;-75
2023/01/07 12:04:02;;;;;;;3.05;1.60;;;;;;;;;;4997760;28;20031;-75
2023/01/07 12:06:29;;;;;;;3.78;1.55;;;;;;;;;;4991664;28;20034;-74
2023/01/07 12:09:04;;;;;;;3.60;1.40;;;;;;;;;;4990931;28;20019;-74
2023/01/07 12:11:31;;;;;;;2.65;1.60;;;;;;;;;;5001193;28;20084;-75
2023/01/07 12:14:01;;;;;;;3.80;1.63;;;;;;;;;;4988818;28;20094;-74
2023/01/07 12:16:27;;;;;;;3.10;1.90;;;;;;;;;;4989297;28;20121;-74
2023/01/07 12:19:12;;;;;;;2.80;1.90;;;;;;;;;;4997760;28;20109;-73
2023/01/07 12:21:51;;;;;;;2.75;2.10;;;;;;;;;;4983593;28;20550;-78
2023/01/07 12:24:25;;;;;;;2.38;1.75;;;;;;;;;;4997317;28;20034;-83
2023/01/07 12:26:51;;;;;;;6.60;1.90;;;;;;;;;;4992964;28;20491;-83
2023/01/07 12:29:39;;;;;;;3.33;1.70;;;;;;;;;;5000536;28;20121;-86
2023/01/07 12:32:11;;;;;;;2.40;1.70;;;;;;;;;;4985470;28;20129;-84
2023/01/07 12:34:37;;;;;;;6.43;1.83;;;;;;;;;;4990805;28;20030;-85
2023/01/07 12:37:08;;;;;;;4.25;1.90;;;;;;;;;;4990964;28;20050;-82
2023/01/07 12:39:35;;;;;;;4.10;1.80;;;;;;;;;;4992054;28;20105;-84
2023/01/07 12:42:21;;;;;;;2.22;1.67;;;;;;;;;;5009808;28;20045;-83
2023/01/07 12:44:52;;;;;;;3.75;2.10;;;;;;;;;;5004330;28;20041;-84
2023/01/07 12:47:29;;;;;;;4.60;1.98;;;;;;;;;;4989903;28;20044;-83
2023/01/07 12:49:58;;;;;;;2.33;1.70;;;;;;;;;;4990479;28;20433;-83
2023/01/07 12:52:43;;;;;;;5.22;1.70;;;;;;;;;;4986545;28;20031;-85
2023/01/07 12:55:17;;;;;;;2.50;1.70;;;;;;;;;;4999534;28;20045;-85
2023/01/07 12:57:45;;;;;;;3.92;1.80;;;;;;;;;;4953077;28;1255748;-83
2023/01/07 13:00:20;;;;;;;4.10;1.80;;;;;;;;;;4994395;28;20073;-85
2023/01/07 13:02:53;;;;;;;2.55;1.90;;;;;;;;;;4988438;28;20022;-83
2023/01/07 13:05:22;;;;;;;3.28;1.80;;;;;;;;;;4985872;28;20135;-83
2023/01/07 13:07:52;;;;;;;3.05;1.90;;;;;;;;;;5001798;28;20044;-83
2023/01/07 13:10:26;;;;;;;3.97;2.17;;;;;;;;;;4993670;28;20035;-82
2023/01/07 13:12:56;;;;;;;5.18;2.15;;;;;;;;;;4992776;28;20046;-83
2023/01/07 13:15:26;;;;;;;6.43;2.05;;;;;;;;;;5011595;28;20029;-84
2023/01/07 13:17:57;;;;;;;3.00;2.00;;;;;;;;;;4994884;28;20035;-83
2023/01/07 13:20:37;;;;;;;3.28;2.10;;;;;;;;;;5001478;28;20034;-83
2023/01/07 13:23:04;;;;;;;3.40;2.08;;;;;;;;;;4992365;28;20049;-84
2023/01/07 13:25:39;;;;;;;5.63;2.10;;;;;;;;;;4996935;28;20114;-85
2023/01/07 13:28:06;;;;;;;3.70;2.05;;;;;;;;;;4989872;28;20061;-84
2023/01/07 13:30:45;;;;;;;3.67;2.00;;;;;;;;;;5001723;28;21492;-84
2023/01/07 13:33:17;;;;;;;5.13;2.03;;;;;;;;;;5015859;28;20503;-85
2023/01/07 13:35:57;;;;;;;2.78;2.08;;;;;;;;;;5012551;28;20033;-84
2023/01/07 13:38:42;;;;;;;4.25;2.35;;;;;;;;;;5014473;28;20014;-85
2023/01/07 13:41:27;;;;;;;3.92;2.35;;;;;;;;;;5011112;28;20026;-85
2023/01/07 13:43:59;;;;;;;3.22;2.35;;;;;;;;;;5006568;28;20032;-86
2023/01/07 13:46:30;;;;;;;7.03;2.72;;;;;;;;;;5012677;28;20042;-88
2023/01/07 13:48:56;;;;;;;4.07;2.60;;;;;;;;;;5010880;28;20038;-87
2023/01/07 13:51:28;;;;;;;4.63;2.20;;;;;;;;;;4993127;28;20057;-86
2023/01/07 13:53:54;;;;;;;5.45;2.45;;;;;;;;;;5010035;28;20480;-86
2023/01/07 13:56:24;;;;;;;3.13;2.20;;;;;;;;;;5011761;28;20025;-87
2023/01/07 13:58:54;;;;;;;3.30;2.35;;;;;;;;;;5028133;28;20029;-87
2023/01/07 14:01:27;;;;;;;2.63;2.13;;;;;;;;;;5005557;28;20030;-89
2023/01/07 14:03:53;;;;;;;3.20;2.40;;;;;;;;;;5002929;28;20782;-86
2023/01/07 14:06:19;;;;;;;3.42;2.08;;;;;;;;;;5012249;28;20018;-87
2023/01/07 14:08:46;;;;;;;3.47;2.35;;;;;;;;;;5005126;28;20019;-88
2023/01/07 14:11:13;;;;;;;5.25;2.30;;;;;;;;;;5002912;28;20034;-86
2023/01/07 14:13:42;;;;;;;3.40;2.78;;;;;;;;;;5005733;28;20026;-79
2023/01/07 14:16:13;;;;;;;6.00;2.42;;;;;;;;;;5007327;28;20049;-78
2023/01/07 14:18:45;;;;;;;4.60;2.20;;;;;;;;;;5013304;28;20037;-79
2023/01/07 14:21:14;;;;;;;4.07;3.00;;;;;;;;;;4997735;28;20010;-82
2023/01/07 14:23:50;;;;;;;4.80;2.67;;;;;;;;;;5005233;28;20034;-78
2023/01/07 14:26:22;;;;;;;4.75;2.10;;;;;;;;;;5011149;28;20515;-78
2023/01/07 14:28:48;;;;;;;6.00;2.70;;;;;;;;;;5007192;28;20023;-78
2023/01/07 14:31:21;;;;;;;5.25;2.90;;;;;;;;;;4995984;28;20030;-79
2023/01/07 14:33:49;;;;;;;5.63;2.65;;;;;;;;;;5000848;28;20027;-78
2023/01/07 14:36:15;;;;;;;5.57;3.15;;;;;;;;;;4998343;28;20047;-79
2023/01/07 14:38:41;;;;;;;4.30;2.90;;;;;;;;;;5021219;28;20045;-78
2023/01/07 14:41:12;;;;;;;3.35;2.50;;;;;;;;;;4996934;28;20018;-78
2023/01/07 14:43:47;;;;;;;4.30;2.80;;;;;;;;;;4998934;28;20121;-77